Terminal Aerodrome Forecast
Issued by NWS Memphis, TN

Home | Current Version | Previous Version | Text Only | Print | Product List | Glossary On
Versions: 1 2 3 4 5 6 7 8 9 10 11 12 13
343
FTUS44 KMEG 241834 AAA
TAFJBR
TAF AMD
KJBR 241834Z 2419/2518 14006KT P6SM VCTS FEW050CB SCT060
      TEMPO 2419/2421 VRB10G20KT 4SM -TSRA BKN050CB
     FM242200 13005KT P6SM SCT060
     FM250000 VRB03KT P6SM SKC
     FM251600 16006KT P6SM FEW045=

USA.gov is the U.S. government's official web portal to all federal, state and local government web resources and services.